Time;durP1;ratioP1;P1;durP2;ratioP2;P2;SDS_P1;SDS_P2;PMS_P1;PMS_P2;Temp;Humidity;BMP_temperature;BMP_pressure;BME280_temperature;BME280_humidity;BME280_pressure;Samples;Min_cycle;Max_cycle;Signal;HPM_P1;HPM_P2
2023/06/12 00:00:56;;;;;;;5.07;4.57;;;;;;;22.77;41.68;101250.38;3578978;39;20126;-67
2023/06/12 00:03:24;;;;;;;10.05;5.03;;;;;;;22.82;42.50;101250.72;3578084;40;20082;-68
2023/06/12 00:05:51;;;;;;;6.65;4.97;;;;;;;22.73;41.68;101257.19;3581005;39;20117;-68
2023/06/12 00:08:18;;;;;;;7.20;4.80;;;;;;;22.69;41.71;101253.06;3577527;40;20537;-67
2023/06/12 00:10:47;;;;;;;6.40;4.70;;;;;;;22.67;41.30;101249.63;3580575;40;20056;-67
2023/06/12 00:13:14;;;;;;;7.10;4.95;;;;;;;22.32;42.16;101201.31;3580185;40;20119;-67
2023/06/12 00:15:40;;;;;;;7.65;5.18;;;;;;;22.60;41.73;101256.78;3579256;40;20387;-67
2023/06/12 00:18:06;;;;;;;6.55;5.00;;;;;;;22.57;42.17;101247.00;3577018;40;20052;-68
2023/06/12 00:20:32;;;;;;;6.72;5.32;;;;;;;22.30;42.09;101212.44;3583567;39;20097;-68
2023/06/12 00:22:58;;;;;;;6.18;5.07;;;;;;;22.35;42.52;101228.38;3576515;40;20442;-69
2023/06/12 00:25:26;;;;;;;7.30;4.80;;;;;;;22.46;42.79;101255.53;3580753;40;20051;-69
2023/06/12 00:27:52;;;;;;;8.95;5.03;;;;;;;22.40;41.83;101246.06;3580201;40;20056;-69
2023/06/12 00:30:18;;;;;;;8.15;4.97;;;;;;;22.37;41.95;101240.06;3576668;40;20064;-69
2023/06/12 00:32:43;;;;;;;5.70;5.20;;;;;;;22.37;42.07;101249.13;3578238;40;20256;-69
2023/06/12 00:35:09;;;;;;;5.43;4.93;;;;;;;22.32;41.64;101242.41;3572535;40;20227;-68
2023/06/12 00:37:35;;;;;;;5.22;4.72;;;;;;;22.12;42.91;101223.41;3581791;40;20352;-68
2023/06/12 00:40:00;;;;;;;7.90;4.95;;;;;;;22.20;42.30;101244.53;3577929;40;20112;-68
2023/06/12 00:42:34;;;;;;;6.07;5.03;;;;;;;22.15;42.05;101244.16;3578576;40;20164;-68
2023/06/12 00:45:00;;;;;;;6.63;4.90;;;;;;;22.13;42.77;101248.91;3582580;39;20052;-68
2023/06/12 00:47:26;;;;;;;7.55;4.88;;;;;;;22.08;42.63;101246.66;3578181;39;20090;-68
2023/06/12 00:49:52;;;;;;;5.75;5.00;;;;;;;21.99;43.05;101234.78;3583806;39;20088;-68
2023/06/12 00:52:21;;;;;;;7.53;4.93;;;;;;;20.97;43.69;101073.88;3582355;40;20058;-68
2023/06/12 00:54:50;;;;;;;6.30;4.95;;;;;;;21.82;43.04;101222.00;3570371;40;20048;-68
2023/06/12 00:57:16;;;;;;;7.20;5.13;;;;;;;21.91;43.78;101244.81;3582023;40;20393;-68
2023/06/12 00:59:41;;;;;;;8.18;4.93;;;;;;;21.86;43.13;101245.28;3577913;40;20056;-68
2023/06/12 01:02:09;;;;;;;5.95;4.97;;;;;;;21.82;44.04;101243.91;3579165;39;20393;-68
2023/06/12 01:04:37;;;;;;;6.70;4.90;;;;;;;21.76;43.93;101245.38;3578452;40;20074;-69
2023/06/12 01:07:33;;;;;;;5.47;4.90;;;;;;;21.70;43.70;101250.63;3579051;40;20072;-68
2023/06/12 01:10:42;;;;;;;5.60;5.00;;;;;;;21.64;43.53;101245.78;3581388;39;20051;-67
2023/06/12 01:13:12;;;;;;;5.75;4.38;;;;;;;21.29;44.28;101188.13;3563946;40;20067;-67
2023/06/12 01:15:39;;;;;;;5.93;4.93;;;;;;;21.57;44.25;101251.03;3577381;40;20280;-68
2023/06/12 01:18:06;;;;;;;7.60;5.20;;;;;;;21.52;44.95;101237.78;3580219;39;20108;-68
2023/06/12 01:20:34;;;;;;;6.57;5.00;;;;;;;21.51;44.73;101252.50;3571379;40;20048;-67
2023/06/12 01:23:18;;;;;;;5.97;5.07;;;;;;;21.47;44.35;101248.38;3577922;40;20048;-68
2023/06/12 01:26:36;;;;;;;5.50;5.00;;;;;;;21.41;45.78;101248.97;3583743;40;20047;-67
2023/06/12 01:29:26;;;;;;;5.47;4.95;;;;;;;21.35;46.07;101245.97;3577636;40;20096;-67
2023/06/12 01:32:12;;;;;;;7.43;5.50;;;;;;;21.30;45.48;101249.16;3579256;39;20083;-68
2023/06/12 01:34:57;;;;;;;5.93;5.25;;;;;;;21.25;44.76;101251.47;3581331;40;20111;-67
2023/06/12 01:37:50;;;;;;;8.60;5.65;;;;;;;21.20;46.23;101254.69;3582078;40;20101;-67
2023/06/12 01:40:19;;;;;;;7.78;5.40;;;;;;;21.15;45.99;101256.16;3578632;39;20133;-67
2023/06/12 01:42:46;;;;;;;5.68;5.18;;;;;;;21.11;46.13;101252.88;3577966;39;20121;-68
2023/06/12 01:45:11;;;;;;;5.40;4.90;;;;;;;21.06;45.98;101253.34;3580567;39;20086;-68
2023/06/12 01:47:37;;;;;;;6.57;5.15;;;;;;;21.02;46.38;101253.78;3580779;40;20400;-67
2023/06/12 01:50:04;;;;;;;6.28;5.35;;;;;;;20.95;46.37;101256.28;3582307;39;20059;-68
2023/06/12 01:52:32;;;;;;;6.28;5.50;;;;;;;20.88;45.95;101246.13;3583470;40;20332;-67
2023/06/12 01:54:59;;;;;;;8.65;5.35;;;;;;;20.85;46.49;101255.47;3579144;40;20048;-67
2023/06/12 01:57:25;;;;;;;7.18;5.93;;;;;;;20.81;47.84;101254.91;3577276;40;20076;-68
2023/06/12 01:59:53;;;;;;;8.48;5.28;;;;;;;20.78;46.98;101254.38;3581882;39;20491;-68
2023/06/12 02:02:20;;;;;;;8.60;5.90;;;;;;;20.72;47.28;101260.44;3577170;40;20359;-68
2023/06/12 02:04:46;;;;;;;7.13;5.20;;;;;;;20.63;47.72;101257.56;3577808;40;20059;-67
2023/06/12 02:07:13;;;;;;;8.07;5.82;;;;;;;20.35;48.18;101220.28;3582839;40;20055;-68
2023/06/12 02:09:39;;;;;;;8.00;5.78;;;;;;;20.50;48.25;101262.47;3581921;40;20110;-68
2023/06/12 02:12:06;;;;;;;7.28;5.35;;;;;;;20.47;48.43;101257.31;3586599;39;20051;-67
2023/06/12 02:14:32;;;;;;;8.45;5.55;;;;;;;20.43;48.75;101255.91;3581628;40;20298;-68
2023/06/12 02:16:57;;;;;;;6.65;5.40;;;;;;;20.40;49.38;101245.28;3580307;40;20082;-68
2023/06/12 02:19:26;;;;;;;9.75;5.82;;;;;;;20.21;48.90;101224.34;3578286;40;20064;-68
2023/06/12 02:21:56;;;;;;;6.60;5.13;;;;;;;20.34;47.99;101256.78;3586627;40;20050;-69
2023/06/12 02:24:27;;;;;;;8.70;5.95;;;;;;;20.30;49.54;101250.75;3585293;40;20070;-68
2023/06/12 02:26:53;;;;;;;8.32;5.85;;;;;;;20.26;48.99;101251.19;3580946;39;20052;-68
2023/06/12 02:29:19;;;;;;;7.55;5.72;;;;;;;20.20;48.54;101240.84;3582593;40;20116;-68
2023/06/12 02:31:45;;;;;;;6.55;5.80;;;;;;;20.19;48.09;101248.19;3586551;40;20280;-66
2023/06/12 02:34:10;;;;;;;7.78;5.65;;;;;;;20.17;49.43;101239.28;3584554;40;20074;-67
2023/06/12 02:36:39;;;;;;;6.95;5.55;;;;;;;20.17;49.18;101248.34;3582720;39;20183;-66
2023/06/12 02:39:13;;;;;;;7.72;5.80;;;;;;;19.89;47.77;101189.22;3585444;39;20349;-67
2023/06/12 02:41:44;;;;;;;7.90;5.80;;;;;;;19.76;47.99;101180.47;3583434;39;20239;-67
2023/06/12 02:44:10;;;;;;;6.50;5.80;;;;;;;20.08;48.51;101241.03;3583727;40;20383;-67
2023/06/12 02:46:58;;;;;;;7.70;5.38;;;;;;;20.03;49.52;101243.34;3586666;40;20059;-67
2023/06/12 02:49:28;;;;;;;6.68;5.82;;;;;;;19.92;48.94;101227.13;3586335;39;20055;-66
2023/06/12 02:51:54;;;;;;;6.40;5.43;;;;;;;19.98;50.34;101242.03;3587365;40;20098;-66
2023/06/12 02:54:23;;;;;;;6.43;5.70;;;;;;;19.95;50.05;101240.50;3586322;39;20508;-67
2023/06/12 02:56:49;;;;;;;7.07;5.57;;;;;;;19.88;49.94;101237.44;3584292;40;20096;-67
2023/06/12 02:59:17;;;;;;;8.10;5.60;;;;;;;19.89;50.42;101235.63;3583289;39;21864;-67
2023/06/12 03:01:44;;;;;;;6.47;5.88;;;;;;;19.86;49.81;101235.91;3584294;40;20060;-67
2023/06/12 03:04:18;;;;;;;6.15;5.38;;;;;;;19.83;49.21;101241.66;3584900;40;20056;-67
2023/06/12 03:06:44;;;;;;;6.40;5.60;;;;;;;19.78;49.61;101244.78;3586097;40;20495;-67
2023/06/12 03:09:11;;;;;;;7.53;5.88;;;;;;;19.80;50.29;101241.94;3584499;39;20468;-67
2023/06/12 03:11:37;;;;;;;7.55;6.05;;;;;;;19.76;50.85;101241.38;3586058;40;20060;-67
2023/06/12 03:14:05;;;;;;;6.80;5.80;;;;;;;19.47;49.99;101197.69;3585436;40;20052;-67
2023/06/12 03:16:32;;;;;;;8.32;5.95;;;;;;;19.69;50.09;101243.81;3585562;40;20059;-67
2023/06/12 03:18:57;;;;;;;8.93;6.13;;;;;;;19.68;49.97;101238.50;3583607;39;20051;-67
2023/06/12 03:21:23;;;;;;;8.90;6.00;;;;;;;19.66;49.31;101246.81;3582020;40;20779;-67
2023/06/12 03:23:49;;;;;;;6.82;5.88;;;;;;;19.63;49.83;101246.19;3585454;39;20051;-67
2023/06/12 03:26:15;;;;;;;9.40;6.32;;;;;;;19.56;50.22;101242.31;3584996;40;20255;-67
2023/06/12 03:28:42;;;;;;;8.00;6.60;;;;;;;19.54;51.06;101247.94;3585498;40;20116;-67
2023/06/12 03:31:07;;;;;;;10.32;6.90;;;;;;;19.51;50.98;101247.38;3585216;40;20074;-67
2023/06/12 03:33:33;;;;;;;9.93;6.05;;;;;;;19.49;51.26;101252.94;3585055;39;20486;-67
2023/06/12 03:35:59;;;;;;;11.50;7.22;;;;;;;19.49;50.84;101255.66;3583978;39;20058;-69
2023/06/12 03:38:24;;;;;;;12.05;7.82;;;;;;;19.44;50.29;101247.03;3585292;39;20075;-66
2023/06/12 03:40:50;;;;;;;8.35;6.47;;;;;;;19.44;51.16;101247.03;3585653;39;20059;-65
2023/06/12 03:43:15;;;;;;;12.25;7.10;;;;;;;19.41;51.48;101252.78;3585069;40;20385;-68
2023/06/12 03:45:41;;;;;;;7.75;6.95;;;;;;;19.39;52.22;101254.81;3583731;40;20125;-67
2023/06/12 03:48:07;;;;;;;10.68;6.78;;;;;;;19.38;52.35;101258.53;3584828;40;20055;-67
2023/06/12 03:50:32;;;;;;;9.80;6.38;;;;;;;19.35;52.20;101267.00;3585712;39;20063;-66
2023/06/12 03:52:58;;;;;;;7.85;5.90;;;;;;;19.35;52.69;101258.81;3582521;40;20055;-67
2023/06/12 03:55:24;;;;;;;10.23;5.75;;;;;;;19.35;52.47;101261.56;3584806;40;20135;-67
2023/06/12 03:57:50;;;;;;;7.95;6.30;;;;;;;19.33;51.63;101260.81;3585547;40;20056;-67
2023/06/12 04:00:17;;;;;;;8.60;5.95;;;;;;;19.15;52.50;101236.09;3582230;39;20125;-67
2023/06/12 04:02:43;;;;;;;6.78;6.10;;;;;;;19.30;53.09;101258.38;3585699;40;20060;-67
2023/06/12 04:05:09;;;;;;;7.90;6.20;;;;;;;19.32;52.66;101270.00;3584970;39;20063;-67
2023/06/12 04:07:38;;;;;;;10.38;6.68;;;;;;;19.32;51.83;101267.28;3587290;40;20047;-67
2023/06/12 04:10:05;;;;;;;8.55;6.40;;;;;;;19.28;51.85;101260.38;3585972;39;20048;-67
2023/06/12 04:12:31;;;;;;;8.27;6.43;;;;;;;19.02;52.03;101214.56;3587624;40;20110;-67
2023/06/12 04:14:57;;;;;;;9.05;6.97;;;;;;;19.38;52.10;101274.91;3586812;40;20091;-67
2023/06/12 04:17:23;;;;;;;9.52;6.88;;;;;;;19.38;52.40;101272.19;3585668;40;20111;-69
2023/06/12 04:19:49;;;;;;;10.05;7.20;;;;;;;19.39;51.88;101282.94;3586605;39;20067;-67
2023/06/12 04:22:16;;;;;;;10.43;6.90;;;;;;;19.12;52.24;101230.94;3586548;40;20056;-67
2023/06/12 04:24:43;;;;;;;10.38;6.85;;;;;;;19.43;52.42;101286.22;3584150;40;20047;-67
2023/06/12 04:27:10;;;;;;;7.53;6.72;;;;;;;19.44;52.68;101282.50;3584786;40;20067;-67
2023/06/12 04:29:37;;;;;;;10.07;6.93;;;;;;;19.46;51.95;101286.81;3581992;39;20062;-67
2023/06/12 04:32:06;;;;;;;9.10;6.57;;;;;;;19.45;52.44;101281.50;3586804;39;20060;-67
2023/06/12 04:34:43;;;;;;;11.18;7.35;;;;;;;19.49;50.92;101278.34;3587491;39;20430;-68
2023/06/12 04:37:11;;;;;;;9.82;7.40;;;;;;;19.52;51.99;101282.66;3584888;40;20434;-66
2023/06/12 04:39:38;;;;;;;12.73;6.90;;;;;;;19.54;52.04;101280.66;3587091;39;20052;-68
2023/06/12 04:42:08;;;;;;;12.25;7.40;;;;;;;18.91;51.87;101168.38;3586639;40;20120;-68
2023/06/12 04:44:37;;;;;;;12.77;6.93;;;;;;;19.61;51.95;101276.34;3584038;40;20052;-67
2023/06/12 04:47:10;;;;;;;9.85;7.00;;;;;;;19.63;51.90;101268.91;3584506;39;20131;-68
2023/06/12 04:49:41;;;;;;;12.07;7.55;;;;;;;19.66;52.52;101273.22;3587114;39;20648;-66
2023/06/12 04:52:12;;;;;;;12.88;7.38;;;;;;;19.69;51.71;101278.38;3585673;40;20383;-68
2023/06/12 04:54:41;;;;;;;12.45;6.75;;;;;;;19.69;52.51;101276.53;3586567;40;20056;-67
2023/06/12 04:57:12;;;;;;;11.32;7.03;;;;;;;19.73;51.93;101284.41;3586377;40;20079;-66
2023/06/12 04:59:39;;;;;;;14.13;7.10;;;;;;;19.76;51.14;101285.03;3584144;39;20396;-67
2023/06/12 05:02:08;;;;;;;12.05;7.05;;;;;;;19.80;51.04;101283.72;3587391;39;20064;-67
2023/06/12 05:04:35;;;;;;;14.80;6.93;;;;;;;19.85;51.42;101286.88;3585307;40;20051;-67
2023/06/12 05:07:03;;;;;;;15.40;7.15;;;;;;;19.90;50.91;101286.44;3587379;40;20128;-67
2023/06/12 05:09:30;;;;;;;10.95;6.53;;;;;;;19.94;50.65;101287.88;3586280;40;20390;-66
2023/06/12 05:11:55;;;;;;;11.77;7.13;;;;;;;19.89;50.93;101271.09;3585498;40;20047;-67
2023/06/12 05:14:21;;;;;;;10.60;7.68;;;;;;;20.04;50.12;101290.59;3586676;40;20078;-66
2023/06/12 05:16:46;;;;;;;10.15;7.45;;;;;;;20.07;50.59;101291.16;3587219;39;20060;-67
2023/06/12 05:19:12;;;;;;;9.63;7.40;;;;;;;20.06;51.28;101281.25;3583161;40;20469;-69
2023/06/12 05:21:41;;;;;;;10.88;9.13;;;;;;;20.15;51.34;101291.31;3576783;40;20328;-68
2023/06/12 05:24:07;;;;;;;11.80;8.75;;;;;;;20.19;50.94;101294.59;3585185;40;20073;-68
2023/06/12 05:26:33;;;;;;;9.63;8.15;;;;;;;20.15;51.41;101285.84;3582138;39;20099;-67
2023/06/12 05:29:00;;;;;;;10.45;7.63;;;;;;;20.27;50.72;101299.34;3583822;39;20059;-67
2023/06/12 05:31:26;;;;;;;10.18;7.50;;;;;;;20.33;51.17;101291.44;3586363;40;20591;-69
2023/06/12 05:33:52;;;;;;;8.57;7.22;;;;;;;20.38;50.87;101293.69;3585818;40;20047;-70
2023/06/12 05:36:17;;;;;;;7.38;6.47;;;;;;;20.46;51.62;101287.53;3582466;40;20067;-69
2023/06/12 05:38:46;;;;;;;12.05;7.30;;;;;;;20.52;50.83;101286.94;3586465;40;20051;-69
2023/06/12 05:41:15;;;;;;;9.32;7.78;;;;;;;20.63;50.39;101294.97;3585805;39;20370;-70
2023/06/12 05:43:44;;;;;;;8.07;6.45;;;;;;;20.34;49.69;101226.75;3585926;39;20775;-67
2023/06/12 05:46:10;;;;;;;10.20;7.00;;;;;;;20.62;49.07;101255.84;3584908;40;20052;-67
2023/06/12 05:48:36;;;;;;;9.43;7.10;;;;;;;20.81;49.08;101275.91;3583940;40;20126;-68
2023/06/12 05:51:05;;;;;;;10.63;7.00;;;;;;;20.99;48.73;101290.47;3585379;39;20124;-67
2023/06/12 05:53:33;;;;;;;8.45;6.22;;;;;;;21.07;49.18;101297.94;3576928;40;20071;-68
2023/06/12 05:55:59;;;;;;;8.32;6.65;;;;;;;21.17;48.81;101274.13;3585201;40;20054;-67
2023/06/12 05:58:25;;;;;;;7.47;6.07;;;;;;;21.31;48.79;101280.94;3585623;39;20061;-69
2023/06/12 06:00:52;;;;;;;11.68;7.00;;;;;;;21.38;47.79;101273.91;3583797;39;20051;-70
2023/06/12 06:03:19;;;;;;;7.85;6.50;;;;;;;21.53;47.58;101277.84;3586315;40;20170;-71
2023/06/12 06:05:46;;;;;;;10.90;5.93;;;;;;;21.69;47.37;101282.63;3587751;40;20052;-70
2023/06/12 06:08:12;;;;;;;10.00;7.32;;;;;;;21.76;46.70;101258.22;3586450;40;20374;-71
2023/06/12 06:10:38;;;;;;;12.20;6.80;;;;;;;22.02;47.10;101282.91;3574264;40;20064;-69
2023/06/12 06:13:04;;;;;;;8.75;6.35;;;;;;;22.11;46.48;101270.13;3586305;39;20105;-69
2023/06/12 06:15:30;;;;;;;8.68;6.78;;;;;;;22.31;45.71;101281.78;3586457;40;20140;-69
2023/06/12 06:17:57;;;;;;;9.63;6.28;;;;;;;22.47;45.41;101287.38;3586181;40;20059;-69
2023/06/12 06:20:22;;;;;;;9.98;6.15;;;;;;;22.63;45.46;101281.13;3584898;39;20331;-69
2023/06/12 06:22:49;;;;;;;8.75;6.28;;;;;;;22.72;45.00;101280.16;3583379;39;20068;-69
2023/06/12 06:25:15;;;;;;;11.98;6.78;;;;;;;22.89;43.30;101295.66;3585334;39;20052;-69
2023/06/12 06:27:41;;;;;;;10.30;6.68;;;;;;;23.04;43.06;101289.59;3582705;40;20071;-69
2023/06/12 06:30:07;;;;;;;10.25;6.13;;;;;;;23.17;43.24;101292.72;3584715;39;20445;-69
2023/06/12 06:32:33;;;;;;;10.38;6.25;;;;;;;23.32;42.96;101295.69;3586373;40;20421;-69
2023/06/12 06:34:59;;;;;;;11.07;6.28;;;;;;;23.24;42.34;101268.22;3584107;40;20067;-69
2023/06/12 06:37:25;;;;;;;11.48;5.97;;;;;;;23.52;42.20;101299.00;3585437;40;20055;-69
2023/06/12 06:39:51;;;;;;;13.13;6.88;;;;;;;23.57;42.76;101285.66;3585596;39;20381;-69
2023/06/12 06:42:16;;;;;;;8.77;6.53;;;;;;;23.77;41.21;101294.44;3584742;40;20764;-69
2023/06/12 06:44:42;;;;;;;9.75;6.38;;;;;;;23.63;41.85;101244.66;3584912;40;20051;-69
2023/06/12 06:47:11;;;;;;;9.77;6.30;;;;;;;24.05;41.40;101300.47;3584654;40;20124;-69
2023/06/12 06:49:37;;;;;;;13.32;5.63;;;;;;;24.21;42.01;101305.13;3582298;39;20079;-69
2023/06/12 06:52:05;;;;;;;11.25;6.38;;;;;;;24.32;40.83;101305.59;3584168;40;20394;-69
2023/06/12 06:54:31;;;;;;;7.03;6.05;;;;;;;24.14;41.05;101268.38;3585339;39;20055;-68
2023/06/12 06:56:57;;;;;;;8.20;6.13;;;;;;;24.50;40.64;101308.19;3585623;40;20094;-66
2023/06/12 06:59:26;;;;;;;7.80;5.70;;;;;;;24.61;40.80;101306.09;3584579;40;20098;-69
2023/06/12 07:01:52;;;;;;;10.00;6.07;;;;;;;24.61;40.41;101287.75;3585956;40;20055;-69
2023/06/12 07:04:17;;;;;;;10.50;5.95;;;;;;;24.76;39.73;101307.09;3584034;40;20131;-70
2023/06/12 07:06:43;;;;;;;6.55;5.65;;;;;;;24.83;39.84;101299.00;3585121;40;20091;-69
2023/06/12 07:09:09;;;;;;;7.50;5.68;;;;;;;24.91;40.33;101296.25;3581963;39;20056;-68
2023/06/12 07:11:35;;;;;;;7.80;5.50;;;;;;;24.89;39.94;101279.91;3585810;40;20063;-69
2023/06/12 07:14:01;;;;;;;8.68;5.78;;;;;;;25.13;39.62;101292.75;3584395;40;20333;-69
2023/06/12 07:16:27;;;;;;;8.00;5.30;;;;;;;25.24;40.09;101295.09;3585107;40;20071;-68
2023/06/12 07:18:53;;;;;;;6.03;5.20;;;;;;;25.42;40.63;101293.97;3576678;40;20477;-68
2023/06/12 07:21:18;;;;;;;9.90;5.68;;;;;;;25.62;40.39;101286.09;3583331;39;20072;-68
2023/06/12 07:23:45;;;;;;;9.20;5.40;;;;;;;25.82;38.32;101281.88;3585381;39;20112;-68
2023/06/12 07:26:11;;;;;;;9.88;5.47;;;;;;;26.01;38.30;101288.78;3584418;40;20047;-68
2023/06/12 07:28:37;;;;;;;8.10;5.47;;;;;;;26.08;37.35;101278.72;3573320;40;20085;-69
2023/06/12 07:31:02;;;;;;;7.95;5.40;;;;;;;26.04;37.14;101282.91;3584517;39;20484;-69
2023/06/12 07:33:28;;;;;;;8.73;5.35;;;;;;;26.13;37.27;101279.03;3589865;40;20075;-69
2023/06/12 07:35:54;;;;;;;6.18;5.57;;;;;;;26.24;37.85;101285.13;3573743;40;20129;-69
2023/06/12 07:38:19;;;;;;;8.82;5.15;;;;;;;26.27;36.94;101282.84;3582081;39;20063;-69
2023/06/12 07:40:45;;;;;;;7.50;5.57;;;;;;;26.46;37.72;101291.66;3584718;39;20223;-68
2023/06/12 07:43:11;;;;;;;7.40;5.25;;;;;;;26.57;36.70;101283.78;3584054;40;20058;-69
2023/06/12 07:45:36;;;;;;;6.57;5.30;;;;;;;26.73;37.44;101276.38;3586980;40;20052;-69
2023/06/12 07:48:02;;;;;;;6.82;5.32;;;;;;;26.84;36.03;101282.28;3583087;40;20051;-68
2023/06/12 07:50:28;;;;;;;10.98;5.15;;;;;;;26.91;36.71;101276.84;3584976;39;20749;-69
2023/06/12 07:52:53;;;;;;;6.68;5.05;;;;;;;27.13;36.43;101283.31;3586039;40;20272;-69
2023/06/12 07:55:20;;;;;;;5.55;5.05;;;;;;;27.21;34.53;101269.44;3585356;40;20228;-69
2023/06/12 07:57:47;;;;;;;6.15;5.43;;;;;;;27.21;35.72;101257.50;3586106;40;20154;-69
2023/06/12 08:00:14;;;;;;;7.40;4.88;;;;;;;27.69;35.73;101280.81;3581643;40;20660;-69
2023/06/12 08:02:40;;;;;;;7.53;5.13;;;;;;;27.71;34.71;101280.59;3584938;40;20125;-68
2023/06/12 08:05:07;;;;;;;8.07;5.72;;;;;;;27.76;33.54;101275.34;3584299;39;20326;-68
2023/06/12 08:07:33;;;;;;;6.47;5.38;;;;;;;27.75;35.77;101276.38;3584088;40;20596;-68
2023/06/12 08:10:00;;;;;;;8.35;5.43;;;;;;;27.84;34.44;101264.19;3584752;40;20496;-68
2023/06/12 08:12:25;;;;;;;6.93;5.50;;;;;;;28.18;34.48;101271.72;3586759;40;20096;-69
2023/06/12 08:14:53;;;;;;;9.00;5.65;;;;;;;28.38;34.96;101276.56;3583677;39;20062;-70
2023/06/12 08:17:20;;;;;;;10.45;5.45;;;;;;;28.69;33.94;101279.78;3583117;39;20060;-69
2023/06/12 08:19:48;;;;;;;8.80;5.68;;;;;;;28.90;33.80;101276.09;3586691;39;20147;-69
2023/06/12 08:22:15;;;;;;;8.82;6.25;;;;;;;29.13;32.64;101275.78;3583376;40;20047;-69
2023/06/12 08:24:43;;;;;;;9.50;6.05;;;;;;;29.24;32.28;101282.69;3584434;40;20051;-69
2023/06/12 08:27:11;;;;;;;7.28;5.07;;;;;;;29.36;32.05;101280.13;3583123;40;20416;-71
2023/06/12 08:29:37;;;;;;;7.43;5.03;;;;;;;29.38;31.63;101278.03;3581252;40;20371;-71
2023/06/12 08:32:03;;;;;;;9.18;5.18;;;;;;;29.31;32.62;101271.63;3584241;39;20051;-71
2023/06/12 08:34:29;;;;;;;9.60;4.93;;;;;;;29.26;33.04;101272.22;3584916;40;20103;-72
2023/06/12 08:36:55;;;;;;;7.05;5.35;;;;;;;29.29;32.03;101246.03;3584308;40;20052;-72
2023/06/12 08:39:21;;;;;;;7.30;5.45;;;;;;;29.72;32.91;101268.78;3584524;39;20064;-72
2023/06/12 08:41:53;;;;;;;8.30;5.57;;;;;;;29.92;31.42;101274.34;3585149;40;20521;-72
2023/06/12 08:44:23;;;;;;;6.50;4.50;;;;;;;29.99;30.72;101271.56;3583541;40;20064;-71
2023/06/12 08:46:55;;;;;;;6.57;4.53;;;;;;;29.67;30.15;101196.50;3583701;39;20254;-72
2023/06/12 08:49:21;;;;;;;4.72;4.25;;;;;;;30.23;31.15;101270.97;3583727;40;20049;-71
2023/06/12 08:51:50;;;;;;;7.32;4.47;;;;;;;29.73;30.69;101173.47;3583557;40;20064;-72
2023/06/12 08:54:16;;;;;;;5.13;4.63;;;;;;;30.42;30.38;101262.84;3571116;40;20439;-72
2023/06/12 08:56:45;;;;;;;7.95;4.70;;;;;;;30.57;29.94;101257.91;3579315;40;20063;-72
2023/06/12 08:59:11;;;;;;;6.68;4.68;;;;;;;30.81;28.92;101266.66;3579913;40;20059;-72
2023/06/12 09:01:39;;;;;;;7.50;4.60;;;;;;;30.94;28.37;101261.03;3582274;39;20113;-72
2023/06/12 09:04:18;;;;;;;6.30;4.40;;;;;;;31.02;30.12;101269.13;3580736;40;20055;-72
2023/06/12 09:06:45;;;;;;;5.68;4.50;;;;;;;31.05;29.48;101262.28;3575901;40;20080;-72
2023/06/12 09:09:11;;;;;;;6.80;4.88;;;;;;;31.22;29.32;101257.94;3582628;39;20586;-72
2023/06/12 09:11:37;;;;;;;6.95;4.90;;;;;;;31.30;29.27;101254.88;3584338;39;20043;-72
2023/06/12 09:14:03;;;;;;;5.03;4.53;;;;;;;31.34;28.25;101263.69;3580710;39;20509;-72
2023/06/12 09:16:30;;;;;;;11.60;5.13;;;;;;;31.33;29.01;101231.38;3581899;40;20439;-72
2023/06/12 09:18:56;;;;;;;6.00;4.95;;;;;;;31.60;29.01;101249.63;3580762;40;20174;-72
2023/06/12 09:21:24;;;;;;;7.20;4.60;;;;;;;31.70;28.84;101246.34;3582029;40;20067;-72
2023/06/12 09:23:55;;;;;;;5.78;4.60;;;;;;;31.79;29.25;101244.16;3580894;40;20409;-72
2023/06/12 09:26:24;;;;;;;4.63;4.22;;;;;;;31.98;30.06;101239.56;3579440;39;20390;-71
2023/06/12 09:28:52;;;;;;;6.60;4.32;;;;;;;31.83;27.28;101198.13;3570934;40;20671;-72
2023/06/12 09:31:18;;;;;;;5.93;4.10;;;;;;;32.31;27.85;101230.91;3580654;40;20055;-70
2023/06/12 09:33:44;;;;;;;5.63;4.70;;;;;;;32.25;26.94;101209.56;3579700;40;20529;-70
2023/06/12 09:36:14;;;;;;;5.05;4.10;;;;;;;32.46;26.37;101241.72;3582312;40;20063;-71
2023/06/12 09:38:40;;;;;;;7.57;4.70;;;;;;;32.54;27.44;101249.75;3580572;40;20050;-71
2023/06/12 09:41:09;;;;;;;8.80;4.35;;;;;;;32.60;26.67;101251.59;3583771;40;20067;-71
2023/06/12 09:43:35;;;;;;;7.47;4.68;;;;;;;32.55;28.06;101241.19;3580540;39;20056;-70
2023/06/12 09:46:05;;;;;;;5.82;4.65;;;;;;;32.76;28.20;101253.81;3580681;40;20082;-71
2023/06/12 09:48:36;;;;;;;6.45;4.85;;;;;;;32.73;27.47;101250.59;3580182;40;20048;-71
2023/06/12 09:51:08;;;;;;;7.75;4.65;;;;;;;32.62;25.56;101252.25;3580543;40;20394;-70
2023/06/12 09:53:37;;;;;;;8.43;4.38;;;;;;;32.74;26.71;101249.56;3579970;40;20056;-70
2023/06/12 09:56:06;;;;;;;5.00;3.70;;;;;;;32.83;25.62;101249.00;3581522;39;20090;-70
2023/06/12 09:58:36;;;;;;;5.47;3.97;;;;;;;32.79;26.04;101258.03;3580670;40;20161;-70
2023/06/12 10:01:05;;;;;;;4.93;4.05;;;;;;;32.62;25.73;101206.84;3576624;39;20065;-71
2023/06/12 10:03:37;;;;;;;6.40;4.38;;;;;;;32.99;27.28;101260.66;3580910;40;20428;-71
2023/06/12 10:06:06;;;;;;;5.77;4.60;;;;;;;32.75;26.37;101240.09;3578656;39;20250;-70
2023/06/12 10:08:34;;;;;;;4.78;4.15;;;;;;;32.72;26.41;101260.06;3579839;39;20048;-71
2023/06/12 10:11:01;;;;;;;4.72;4.20;;;;;;;32.54;26.52;101256.19;3580794;39;20052;-71
2023/06/12 10:13:28;;;;;;;5.45;4.60;;;;;;;32.52;27.15;101247.22;3582180;40;20063;-70
2023/06/12 10:15:55;;;;;;;6.15;4.25;;;;;;;32.63;26.48;101241.94;3581797;40;20085;-70
2023/06/12 10:18:24;;;;;;;7.50;5.13;;;;;;;32.75;26.60;101240.09;3579282;40;20060;-71
2023/06/12 10:20:53;;;;;;;5.32;4.13;;;;;;;33.00;26.26;101238.13;3579269;40;20056;-70
2023/06/12 10:23:21;;;;;;;5.05;4.30;;;;;;;33.20;25.39;101235.06;3579631;40;20477;-70
2023/06/12 10:25:49;;;;;;;5.75;4.45;;;;;;;32.86;25.65;101158.56;3579378;39;20072;-71
2023/06/12 10:28:16;;;;;;;5.63;4.45;;;;;;;33.46;25.06;101250.59;3579245;40;20044;-71
2023/06/12 10:31:12;;;;;;;4.35;3.95;;;;;;;33.08;25.11;101225.81;3579818;40;20592;-70
2023/06/12 10:34:00;;;;;;;6.18;4.25;;;;;;;33.13;26.36;101239.03;3581578;40;20240;-71
2023/06/12 10:36:47;;;;;;;5.15;4.30;;;;;;;33.42;27.08;101238.19;3580361;40;20083;-71
2023/06/12 10:39:27;;;;;;;6.70;4.65;;;;;;;33.17;26.96;101160.28;3575982;39;20052;-71
2023/06/12 10:41:57;;;;;;;4.75;4.25;;;;;;;33.69;27.01;101223.88;3581205;40;20052;-72
2023/06/12 10:44:45;;;;;;;4.63;4.22;;;;;;;33.92;24.91;101226.72;3580477;40;20137;-73
2023/06/12 10:47:23;;;;;;;6.00;4.65;;;;;;;34.00;24.69;101227.44;3580624;40;20291;-72
2023/06/12 10:50:02;;;;;;;4.82;4.20;;;;;;;33.96;25.00;101218.72;3574975;40;20108;-72
2023/06/12 10:52:29;;;;;;;5.07;4.63;;;;;;;33.98;25.67;101210.97;3579880;39;20417;-72
2023/06/12 10:55:13;;;;;;;6.10;4.75;;;;;;;34.02;24.79;101206.63;3578025;40;20370;-73
2023/06/12 10:57:47;;;;;;;4.63;4.22;;;;;;;34.22;24.78;101217.41;3569163;40;20294;-72
2023/06/12 11:00:19;;;;;;;4.80;4.25;;;;;;;34.33;25.04;101205.41;3578250;40;20051;-72
2023/06/12 11:02:53;;;;;;;7.35;4.50;;;;;;;34.60;25.53;101213.28;3580204;39;20346;-72
2023/06/12 11:05:19;;;;;;;6.15;4.57;;;;;;;34.47;23.09;101205.16;3579350;39;20072;-72
2023/06/12 11:07:47;;;;;;;6.68;4.93;;;;;;;34.26;25.62;101213.06;3581209;39;20107;-72
2023/06/12 11:10:14;;;;;;;8.13;4.82;;;;;;;34.04;24.14;101203.59;3579987;39;20056;-72
2023/06/12 11:12:48;;;;;;;5.10;4.47;;;;;;;34.13;25.07;101207.75;3569105;40;20060;-72
2023/06/12 11:15:15;;;;;;;5.47;4.45;;;;;;;34.33;24.41;101208.22;3578457;40;20375;-71
2023/06/12 11:17:42;;;;;;;6.97;4.40;;;;;;;34.44;24.78;101209.28;3579945;40;20048;-71
2023/06/12 11:20:09;;;;;;;6.93;4.40;;;;;;;34.54;24.50;101191.94;3579469;40;20060;-72
2023/06/12 11:22:36;;;;;;;5.25;4.65;;;;;;;34.52;24.67;101197.75;3579200;39;20469;-72
2023/06/12 11:25:04;;;;;;;5.03;4.22;;;;;;;34.70;23.62;101201.50;3579539;40;20059;-70
2023/06/12 11:27:30;;;;;;;5.22;4.72;;;;;;;34.09;24.45;101131.16;3579434;40;20117;-70
2023/06/12 11:30:13;;;;;;;9.63;4.72;;;;;;;34.33;24.73;101171.91;3578456;40;20048;-71